Jamestown, TN (38556)

4:11 PM CDT on March 27, 2017 (GMT -0500)
Ridgetop Acres | | Change Station
Active Advisory: Severe Thunderstorm Watch

Elev 1580 ft 36.45 °N, 84.85 °W | Updated 10 minutes ago

Partly Cloudy
Partly Cloudy
72.1 °F
Feels Like 77 °F
N
9.0
Wind Variable Wind from West

Today
High -- | Low -- °F
--% Chance of Precip.
Yesterday
High -- | Low -- °F
Precip. -- in
Pressure 29.88 in
Visibility 10.0 miles
Clouds Few 4600 ft
Heat Index 77 °F
Dew Point 54 °F
Humidity 54%
Rainfall 0.00 in
Snow Depth Not available.
6:32 AM 6:57 PM
Waning Crescent, 0% visible
METAR KCSV 272053Z AUTO 16010G17KT 10SM FEW046 22/12 A2992 RMK AO2 SLP118 T02220122 56031
Pressure 29.88 in
Visibility 10.0 miles
Clouds Few 4600 ft
Heat Index 77 °F
Dew Point 54 °F
Humidity 54%
Rainfall 0.00 in
Snow Depth Not available.
6:32 AM 6:57 PM
Waning Crescent, 0% visible
METAR KCSV 272053Z AUTO 16010G17KT 10SM FEW046 22/12 A2992 RMK AO2 SLP118 T02220122 56031

Get Your Daily Forecast Email!

Thanks for signing up!

Be on the lookout for a verification email in your inbox.

You'll start receiving severe weather alerts in your inbox..

×

10-Day Weather Forecast

Almanac

Astronomy

Mar. 27, 2017 Rise Set
Actual Time
Civil Twilight
Nautical Twilight
Astronomical Twilight
Moon
Length of Visible Light
Length of Day
Tomorrow will be .
, % of the Moon is Illuminated

Today's Extremes

State Highs State Lows

Community

WunderPhotos

Upload Photos

1,962,540 photos uploaded!

WunderBlog® & News

Nearby

Air Quality

  Air Quality AQ Index Pollutant
Not available.

Snow Depth

Station Depth Elevation

Earthquake Activity

City Distance Mag. Time & Date
Minimum magnitude displayed is 2.5.

Earthquake Activity

City Distance Mag. Time & Date
Minimum magnitude displayed is 2.5.

Coastal Water Temperatures

Place Temperature

Stations

Nearby Weather Stations

Station Location Temp. Windchill Dew Point Humidity Wind Precip. Elev Updated Type
                   

Watches & Warnings

Severe Thunderstorm Watch
Issued: 4:03 PM CDT Mar. 27, 2017 – National Weather Service

Severe Thunderstorm Watch 91 remains in effect until 1000 PM CDT

TN
. Tennessee counties included are

Bedford Cannon Cheatham
Clay Coffee Cumberland
Davidson De Kalb Fentress
Franklin Giles Grundy
Jackson Lawrence Lincoln
Macon Marshall Maury
Moore Overton Pickett
Putnam Robertson Rutherford
Smith Sumner Trousdale
Van Buren Warren white
Williamson Wilson